Time;durP1;ratioP1;P1;durP2;ratioP2;P2;SDS_P1;SDS_P2;PMS_P1;PMS_P2;Temp;Humidity;BMP_temperature;BMP_pressure;BME280_temperature;BME280_humidity;BME280_pressure;Samples;Min_cycle;Max_cycle;Signal;HPM_P1;HPM_P2
2023/09/15 04:03:12;;;;;;;1.40;1.30;;;10.30;97.30;;;;;;4971543;28;20460;-89
2023/09/15 04:05:38;;;;;;;3.43;2.50;;;10.30;97.30;;;;;;4984639;28;20418;-87
2023/09/15 04:08:04;;;;;;;1.50;1.40;;;10.30;97.30;;;;;;4961904;28;20649;-89
2023/09/15 04:10:29;;;;;;;1.73;1.67;;;10.30;97.30;;;;;;4985679;28;20429;-88
2023/09/15 04:12:57;;;;;;;10.40;1.73;;;10.30;97.30;;;;;;4947884;28;20423;-90
2023/09/15 04:15:26;;;;;;;2.23;2.03;;;10.30;97.30;;;;;;4956870;28;20187;-89
2023/09/15 04:17:59;;;;;;;1.43;1.33;;;10.30;97.30;;;;;;4953912;28;20454;-89
2023/09/15 04:20:27;;;;;;;2.53;1.87;;;10.20;97.30;;;;;;4942174;28;20430;-90
2023/09/15 04:23:00;;;;;;;2.60;2.40;;;10.20;97.30;;;;;;4951922;28;20434;-89
2023/09/15 04:25:29;;;;;;;2.57;2.37;;;10.20;97.30;;;;;;4960856;28;20451;-89
2023/09/15 04:27:57;;;;;;;2.37;1.90;;;10.20;97.30;;;;;;4962856;28;20495;-89
2023/09/15 04:30:30;;;;;;;2.30;2.10;;;10.20;97.30;;;;;;4955906;28;20436;-89
2023/09/15 04:32:59;;;;;;;3.33;2.00;;;10.20;97.30;;;;;;4985995;28;20957;-89
2023/09/15 04:35:27;;;;;;;79.93;4.97;;;10.10;97.30;;;;;;4954277;28;20427;-90
2023/09/15 04:38:17;;;;;;;1.20;1.10;;;10.10;97.30;;;;;;4948788;28;20427;-89
2023/09/15 04:40:48;;;;;;;1.30;1.20;;;10.10;97.30;;;;;;4936881;28;20467;-89
2023/09/15 04:43:30;;;;;;;4.43;2.53;;;10.10;97.30;;;;;;4957471;28;20433;-89
2023/09/15 04:45:57;;;;;;;2.07;1.90;;;10.10;97.30;;;;;;4960799;28;20458;-89
2023/09/15 04:48:34;;;;;;;2.10;1.40;;;10.10;97.30;;;;;;4959964;28;20473;-90
2023/09/15 04:50:59;;;;;;;8.53;3.20;;;10.10;97.30;;;;;;4959490;28;20690;-90
2023/09/15 04:53:28;;;;;;;1.83;1.63;;;10.10;97.30;;;;;;4966327;28;20832;-90
2023/09/15 04:55:56;;;;;;;1.40;1.33;;;10.10;97.30;;;;;;4971806;28;20206;-90
2023/09/15 04:58:29;;;;;;;1.43;1.33;;;10.10;97.30;;;;;;4965024;28;20972;-91
2023/09/15 05:00:59;;;;;;;2.83;1.87;;;10.10;97.30;;;;;;4968526;28;20459;-90
2023/09/15 05:03:28;;;;;;;2.83;1.53;;;10.10;97.30;;;;;;4952411;28;20744;-90
2023/09/15 05:06:07;;;;;;;2.23;2.10;;;10.10;97.30;;;;;;4960839;28;20431;-89
2023/09/15 05:08:39;;;;;;;6.40;2.30;;;10.10;97.30;;;;;;4945868;28;20462;-90
2023/09/15 05:11:07;;;;;;;1.77;1.67;;;10.10;97.30;;;;;;4969834;28;20896;-90
2023/09/15 05:13:39;;;;;;;2.73;1.90;;;10.10;97.30;;;;;;4945201;28;20424;-90
2023/09/15 05:16:08;;;;;;;1.20;1.17;;;10.10;97.30;;;;;;4942757;28;20423;-90
2023/09/15 05:18:37;;;;;;;2.73;2.00;;;10.10;97.30;;;;;;4945647;28;20428;-90
2023/09/15 05:21:08;;;;;;;1.87;1.77;;;10.10;97.30;;;;;;4974705;28;20525;-90
2023/09/15 05:23:37;;;;;;;2.17;1.97;;;10.10;97.30;;;;;;4947883;28;20419;-90
2023/09/15 05:26:10;;;;;;;1.90;1.80;;;10.10;97.30;;;;;;4946546;28;20518;-92
2023/09/15 05:28:38;;;;;;;3.17;2.07;;;10.10;97.30;;;;;;4958305;28;20474;-90
2023/09/15 05:31:07;;;;;;;2.93;2.33;;;10.10;97.30;;;;;;4969219;28;20450;-88
2023/09/15 05:33:40;;;;;;;2.73;2.40;;;10.20;97.30;;;;;;4958220;28;20958;-90
2023/09/15 05:36:08;;;;;;;3.27;1.57;;;10.20;97.30;;;;;;4974481;28;20425;-90
2023/09/15 05:38:36;;;;;;;1.50;1.40;;;10.20;97.30;;;;;;4950833;28;20929;-91
2023/09/15 05:41:09;;;;;;;3.60;2.23;;;10.20;97.30;;;;;;4959389;28;20974;-90
2023/09/15 05:43:37;;;;;;;3.70;1.83;;;10.30;97.30;;;;;;4954055;28;20431;-87
2023/09/15 05:46:09;;;;;;;2.53;2.40;;;10.30;97.30;;;;;;4951697;28;20444;-90
2023/09/15 05:48:38;;;;;;;13.80;2.10;;;10.30;97.30;;;;;;4945367;28;20514;-90
2023/09/15 05:51:07;;;;;;;2.40;1.87;;;10.40;97.30;;;;;;4953877;28;20465;-90
2023/09/15 05:53:34;;;;;;;2.60;1.90;;;10.40;97.30;;;;;;4956525;28;20481;-89
2023/09/15 05:56:00;;;;;;;2.30;2.10;;;10.50;97.30;;;;;;4966262;28;20419;-90
2023/09/15 05:58:27;;;;;;;1.60;1.50;;;10.50;97.30;;;;;;4950861;28;20449;-90
2023/09/15 06:00:58;;;;;;;2.80;1.10;;;10.60;97.30;;;;;;4974684;28;20500;-91
2023/09/15 06:03:24;;;;;;;2.47;2.23;;;10.60;97.30;;;;;;4972303;28;20496;-90
2023/09/15 06:05:50;;;;;;;1.83;1.70;;;10.70;97.30;;;;;;4955578;28;20494;-90
2023/09/15 06:08:18;;;;;;;9.73;3.93;;;10.70;97.30;;;;;;4951518;28;20845;-91
2023/09/15 06:10:58;;;;;;;1.97;1.43;;;10.80;97.30;;;;;;4960433;28;20704;-91
2023/09/15 06:13:46;;;;;;;1.70;1.20;;;10.90;97.30;;;;;;4984712;28;20437;-88
2023/09/15 06:16:19;;;;;;;1.50;1.40;;;10.90;97.30;;;;;;4960078;28;20429;-90
2023/09/15 06:18:48;;;;;;;1.50;1.40;;;11.00;97.30;;;;;;4964425;28;20430;-90
2023/09/15 06:21:16;;;;;;;1.67;1.40;;;11.10;97.30;;;;;;4964830;28;20545;-91
2023/09/15 06:24:00;;;;;;;6.50;3.43;;;11.20;97.30;;;;;;4971295;28;20908;-90
2023/09/15 06:26:28;;;;;;;2.70;2.37;;;11.30;97.30;;;;;;4970443;28;21420;-91
2023/09/15 06:29:06;;;;;;;2.63;2.07;;;11.40;97.30;;;;;;4943543;28;20458;-90
2023/09/15 06:31:50;;;;;;;3.60;3.37;;;11.50;97.30;;;;;;4959616;28;20464;-91
2023/09/15 06:34:18;;;;;;;3.37;2.50;;;11.50;97.30;;;;;;4947931;28;20561;-89
2023/09/15 06:36:47;;;;;;;5.77;5.47;;;11.60;97.30;;;;;;4941406;28;20416;-89
2023/09/15 06:42:39;;;;;;;4.70;4.37;;;11.80;97.30;;;;;;4937012;28;20675;-91
2023/09/15 06:45:10;;;;;;;5.40;3.17;;;11.90;97.30;;;;;;4993001;28;20423;-89
2023/09/15 06:47:38;;;;;;;3.60;3.40;;;12.00;97.30;;;;;;4961099;28;20431;-89
2023/09/15 06:50:08;;;;;;;3.30;3.07;;;12.00;97.30;;;;;;4985006;28;20512;-90
2023/09/15 06:52:47;;;;;;;8.30;2.43;;;12.10;97.30;;;;;;4951821;28;20457;-90
2023/09/15 06:55:56;;;;;;;2.93;2.73;;;12.20;97.30;;;;;;4964998;28;20513;-90
2023/09/15 06:58:29;;;;;;;2.47;2.10;;;12.30;97.30;;;;;;4938877;28;20434;-90
2023/09/15 07:00:58;;;;;;;4.40;3.30;;;12.40;97.30;;;;;;4948216;28;20545;-90
2023/09/15 07:03:46;;;;;;;8.27;3.40;;;12.50;97.30;;;;;;4961260;28;20806;-92
2023/09/15 07:06:19;;;;;;;2.30;2.10;;;12.50;97.30;;;;;;4936676;28;20482;-91
2023/09/15 07:08:49;;;;;;;5.30;3.27;;;12.60;97.30;;;;;;4952310;28;20521;-89
2023/09/15 07:11:18;;;;;;;9.43;3.30;;;12.70;97.30;;;;;;4949224;28;20457;-90
2023/09/15 07:13:48;;;;;;;4.20;1.80;;;12.80;97.30;;;;;;4947222;28;20422;-90
2023/09/15 07:16:16;;;;;;;2.33;2.17;;;12.80;97.30;;;;;;4965884;28;20516;-90
2023/09/15 07:18:49;;;;;;;3.93;3.70;;;12.90;97.30;;;;;;4962897;28;20494;-90
2023/09/15 07:21:17;;;;;;;2.30;1.90;;;13.00;97.30;;;;;;4955618;28;20454;-90
2023/09/15 07:23:42;;;;;;;2.40;2.20;;;13.00;97.30;;;;;;4966955;28;20449;-91
2023/09/15 07:26:08;;;;;;;3.40;3.20;;;13.10;97.30;;;;;;4958749;28;21043;-90
2023/09/15 07:28:41;;;;;;;3.57;2.83;;;13.20;97.30;;;;;;4956058;28;20649;-90
2023/09/15 07:31:07;;;;;;;2.17;2.00;;;13.30;97.30;;;;;;4956349;28;20818;-90
2023/09/15 07:33:33;;;;;;;5.07;4.10;;;13.40;97.30;;;;;;4965409;28;20429;-91
2023/09/15 07:36:00;;;;;;;3.70;3.17;;;13.50;97.30;;;;;;4968028;28;20188;-91
2023/09/15 07:38:35;;;;;;;3.70;1.53;;;13.50;97.30;;;;;;4963967;28;21321;-91
2023/09/15 07:41:00;;;;;;;1.67;1.57;;;13.60;97.30;;;;;;4948598;28;20457;-91
2023/09/15 07:43:28;;;;;;;2.20;2.00;;;13.80;97.30;;;;;;4954192;28;20432;-90
2023/09/15 07:45:56;;;;;;;1.97;1.53;;;13.80;97.30;;;;;;4943022;28;20736;-91
2023/09/15 07:48:29;;;;;;;2.60;2.40;;;13.90;97.30;;;;;;4949172;28;20468;-91
2023/09/15 07:50:57;;;;;;;1.17;1.07;;;14.00;97.30;;;;;;4949860;28;20444;-90
2023/09/15 07:53:30;;;;;;;10.37;2.00;;;14.10;97.30;;;;;;4976916;28;20414;-89
2023/09/15 07:55:59;;;;;;;6.30;3.50;;;14.20;97.30;;;;;;4951691;28;20418;-91
2023/09/15 07:58:28;;;;;;;3.10;2.03;;;14.30;97.30;;;;;;4948039;28;20436;-91
2023/09/15 08:00:57;;;;;;;2.17;1.73;;;14.40;97.30;;;;;;4945898;28;20466;-91
2023/09/15 08:03:25;;;;;;;2.70;1.63;;;14.50;97.30;;;;;;4965571;28;20419;-89
2023/09/15 08:05:51;;;;;;;1.60;1.50;;;14.60;97.30;;;;;;4967788;28;20514;-89
2023/09/15 08:08:19;;;;;;;1.63;1.53;;;14.80;97.30;;;;;;4949434;28;20903;-89
2023/09/15 08:10:47;;;;;;;2.63;1.73;;;14.90;97.30;;;;;;4950089;28;20207;-88
2023/09/15 08:13:18;;;;;;;3.33;2.40;;;15.10;97.30;;;;;;4965079;28;20426;-89
2023/09/15 08:16:07;;;;;;;1.20;1.10;;;15.20;97.30;;;;;;4965714;28;20422;-89
2023/09/15 08:18:50;;;;;;;2.50;1.50;;;15.30;97.30;;;;;;4950304;28;20419;-89
2023/09/15 08:21:19;;;;;;;1.80;1.60;;;15.50;97.30;;;;;;4979323;28;20446;-89
2023/09/15 08:23:48;;;;;;;3.20;1.40;;;15.60;97.30;;;;;;4947598;28;20434;-88
2023/09/15 08:26:17;;;;;;;3.20;2.30;;;15.70;97.30;;;;;;4980808;28;20431;-89
2023/09/15 08:28:50;;;;;;;2.10;1.30;;;15.90;97.30;;;;;;4970224;28;20502;-90
2023/09/15 08:31:18;;;;;;;1.60;1.50;;;16.00;97.30;;;;;;4963694;28;20477;-89
2023/09/15 08:33:52;;;;;;;1.37;1.37;;;16.10;97.30;;;;;;4976959;28;20430;-89
2023/09/15 08:36:18;;;;;;;3.87;2.53;;;16.30;97.30;;;;;;4964094;28;20441;-88
2023/09/15 08:38:46;;;;;;;2.67;1.63;;;16.40;97.30;;;;;;4956684;28;20426;-90
2023/09/15 08:41:17;;;;;;;1.17;1.10;;;16.50;97.30;;;;;;4972248;28;20206;-92
2023/09/15 08:43:49;;;;;;;2.20;1.90;;;16.60;97.30;;;;;;4966827;28;20852;-92
2023/09/15 08:46:30;;;;;;;1.50;1.40;;;16.70;97.30;;;;;;4970771;28;20814;-93
2023/09/15 08:48:57;;;;;;;5.80;2.90;;;16.80;97.30;;;;;;4966447;28;20461;-91
2023/09/15 08:51:29;;;;;;;2.07;1.93;;;16.90;97.30;;;;;;4983218;28;20466;-94
2023/09/15 08:54:01;;;;;;;1.50;1.30;;;17.00;97.30;;;;;;4987220;28;20781;-93
2023/09/15 08:56:27;;;;;;;2.23;1.97;;;17.20;97.30;;;;;;4966700;28;20443;-91
2023/09/15 08:59:30;;;;;;;2.30;2.10;;;17.20;97.30;;;;;;4957315;28;20530;-91
2023/09/15 09:02:00;;;;;;;3.60;1.37;;;17.40;97.30;;;;;;4950271;28;20454;-93
2023/09/15 09:04:31;;;;;;;1.47;1.37;;;17.50;97.30;;;;;;4974408;28;20414;-92
2023/09/15 09:07:05;;;;;;;4.10;2.03;;;17.60;97.30;;;;;;4955358;28;20424;-93
2023/09/15 09:09:31;;;;;;;1.87;1.83;;;17.70;97.30;;;;;;4974724;28;20462;-92
2023/09/15 09:12:00;;;;;;;2.30;2.07;;;17.80;97.30;;;;;;4960259;28;20442;-92
2023/09/15 09:14:29;;;;;;;1.80;1.53;;;17.90;97.30;;;;;;4955699;28;20429;-93
2023/09/15 09:17:00;;;;;;;1.37;1.27;;;17.90;97.30;;;;;;4962730;28;20961;-91
2023/09/15 09:19:39;;;;;;;2.30;1.43;;;18.00;97.30;;;;;;4975755;28;20423;-91
2023/09/15 09:22:08;;;;;;;1.87;1.77;;;18.10;97.30;;;;;;4961759;28;20534;-92
2023/09/15 09:24:57;;;;;;;1.20;1.10;;;18.20;97.30;;;;;;4951559;28;20438;-92
2023/09/15 09:30:39;;;;;;;1.53;1.43;;;18.40;97.30;;;;;;4941982;28;20430;-90
2023/09/15 09:33:10;;;;;;;2.90;2.20;;;18.50;97.30;;;;;;4970472;28;20435;-93
2023/09/15 09:35:39;;;;;;;1.33;1.23;;;18.60;97.30;;;;;;4954691;28;20206;-93
2023/09/15 09:38:07;;;;;;;1.07;1.07;;;18.70;97.30;;;;;;4970690;28;20505;-92
2023/09/15 09:40:39;;;;;;;1.20;1.13;;;18.80;97.30;;;;;;4954590;28;20439;-92
2023/09/15 09:43:12;;;;;;;1.43;1.33;;;18.90;97.30;;;;;;4955007;28;20441;-92
2023/09/15 09:45:38;;;;;;;1.80;1.70;;;19.00;97.30;;;;;;4945731;28;20438;-93
2023/09/15 09:48:10;;;;;;;3.30;3.10;;;19.10;97.30;;;;;;4952695;28;20446;-93
2023/09/15 09:50:39;;;;;;;1.53;1.43;;;19.10;97.30;;;;;;4960479;28;20183;-93
2023/09/15 09:53:09;;;;;;;4.20;2.10;;;19.20;97.30;;;;;;4949318;28;20427;-93
2023/09/15 09:55:50;;;;;;;2.10;1.57;;;19.30;97.30;;;;;;4963725;28;20448;-93
2023/09/15 09:58:31;;;;;;;1.50;1.40;;;19.40;97.30;;;;;;4963232;28;20423;-93
2023/09/15 10:00:59;;;;;;;2.30;1.63;;;19.50;97.30;;;;;;4974173;28;20505;-94
2023/09/15 10:03:28;;;;;;;1.43;1.10;;;19.50;97.30;;;;;;4954081;28;20627;-93
2023/09/15 10:06:10;;;;;;;1.30;1.20;;;19.60;97.30;;;;;;4958190;28;20426;-94
2023/09/15 10:08:42;;;;;;;1.83;1.73;;;19.70;97.30;;;;;;4959734;28;20465;-93
2023/09/15 10:11:11;;;;;;;1.73;1.43;;;19.70;97.30;;;;;;4967692;28;20527;-93
2023/09/15 10:13:41;;;;;;;1.37;1.30;;;19.80;97.30;;;;;;4967708;28;20435;-94
2023/09/15 10:16:06;;;;;;;1.77;1.23;;;19.80;97.30;;;;;;5011587;23;20496;-64
2023/09/15 10:18:32;;;;;;;4.30;1.57;;;20.00;97.30;;;;;;4978801;28;20841;-64
2023/09/15 10:20:58;;;;;;;2.33;1.87;;;20.00;97.30;;;;;;4975588;28;20281;-64
2023/09/15 10:23:24;;;;;;;1.57;1.40;;;20.10;97.30;;;;;;4989268;28;20657;-64
2023/09/15 10:25:52;;;;;;;1.73;1.40;;;20.20;97.30;;;;;;5009127;28;20218;-64
2023/09/15 10:28:19;;;;;;;1.53;1.07;;;20.30;97.30;;;;;;5007559;28;20428;-64
2023/09/15 10:30:45;;;;;;;1.33;1.30;;;20.40;97.30;;;;;;4997200;28;20559;-66
2023/09/15 10:33:11;;;;;;;1.63;1.53;;;20.50;97.30;;;;;;5003806;28;20423;-66
2023/09/15 10:35:43;;;;;;;2.03;1.53;;;20.60;97.30;;;;;;4999487;28;20427;-66
2023/09/15 10:38:09;;;;;;;2.23;2.07;;;20.70;97.10;;;;;;4999498;28;20436;-67
2023/09/15 10:40:46;;;;;;;1.20;1.10;;;20.80;97.00;;;;;;4996784;28;20929;-67
2023/09/15 10:43:12;;;;;;;1.53;1.20;;;21.00;97.30;;;;;;5003127;28;20180;-67
2023/09/15 10:45:38;;;;;;;2.17;1.50;;;21.10;96.90;;;;;;4999234;28;20424;-67
2023/09/15 10:48:04;;;;;;;1.07;1.07;;;21.10;96.10;;;;;;5001995;28;20436;-67
2023/09/15 10:50:39;;;;;;;2.00;1.43;;;21.20;96.40;;;;;;4999035;28;20209;-67
2023/09/15 10:53:10;;;;;;;1.53;1.20;;;21.30;95.60;;;;;;4998930;28;20578;-67
2023/09/15 10:55:37;;;;;;;2.53;2.40;;;21.30;96.20;;;;;;4997418;28;20420;-66
2023/09/15 10:58:04;;;;;;;3.27;1.30;;;21.40;95.80;;;;;;5003416;28;20420;-67
2023/09/15 11:00:31;;;;;;;2.90;2.10;;;21.50;95.30;;;;;;4999955;28;20663;-66
2023/09/15 11:02:57;;;;;;;2.03;1.80;;;21.60;95.40;;;;;;5003152;28;20428;-66
2023/09/15 11:05:23;;;;;;;5.47;1.53;;;21.70;94.80;;;;;;4996987;28;20460;-68
2023/09/15 11:07:49;;;;;;;1.07;1.00;;;21.80;94.70;;;;;;4991711;28;20187;-67
2023/09/15 11:10:15;;;;;;;4.20;1.73;;;21.90;95.30;;;;;;4991176;28;20465;-67
2023/09/15 11:12:40;;;;;;;1.93;1.57;;;22.00;94.50;;;;;;5004801;28;20431;-66
2023/09/15 11:15:08;;;;;;;4.40;1.30;;;22.00;94.20;;;;;;4995231;28;20224;-66
2023/09/15 11:17:34;;;;;;;8.73;1.60;;;22.10;94.40;;;;;;4998959;28;20204;-68
2023/09/15 11:20:05;;;;;;;1.40;1.30;;;22.10;94.40;;;;;;5004286;28;20976;-65
2023/09/15 11:22:32;;;;;;;1.10;1.10;;;22.20;94.50;;;;;;4997314;28;20801;-64
2023/09/15 11:24:58;;;;;;;2.17;1.30;;;22.30;94.10;;;;;;4999125;28;20478;-63
2023/09/15 11:27:24;;;;;;;2.00;1.90;;;22.40;94.70;;;;;;5004387;28;20722;-65
2023/09/15 11:29:49;;;;;;;4.50;2.17;;;22.50;94.80;;;;;;4986359;28;20233;-64
2023/09/15 11:32:15;;;;;;;1.53;1.43;;;22.60;94.90;;;;;;4987320;28;20284;-65
2023/09/15 11:34:41;;;;;;;1.50;1.33;;;22.70;93.40;;;;;;4995203;28;20371;-65
2023/09/15 11:37:08;;;;;;;3.37;2.30;;;22.80;93.40;;;;;;5007272;28;20198;-64
2023/09/15 11:39:33;;;;;;;1.90;1.80;;;22.90;92.90;;;;;;4995332;28;20220;-66
2023/09/15 11:42:01;;;;;;;3.80;2.13;;;22.90;93.00;;;;;;5001151;28;20507;-66
2023/09/15 11:44:31;;;;;;;1.00;1.00;;;23.00;92.50;;;;;;5003370;28;20185;-67
2023/09/15 11:46:58;;;;;;;1.03;0.97;;;23.10;92.70;;;;;;5011934;28;20783;-66
2023/09/15 11:49:25;;;;;;;3.80;1.87;;;23.20;92.00;;;;;;5001131;28;20971;-65
2023/09/15 11:51:54;;;;;;;2.20;1.23;;;23.20;91.40;;;;;;4996989;28;20452;-66
2023/09/15 11:54:19;;;;;;;1.00;0.90;;;23.30;91.10;;;;;;5003274;28;20420;-66
2023/09/15 11:56:46;;;;;;;1.73;1.63;;;23.40;91.20;;;;;;5001591;28;20772;-65
2023/09/15 11:59:13;;;;;;;3.00;1.53;;;23.50;91.60;;;;;;5005100;28;20579;-66
2023/09/15 12:01:40;;;;;;;2.80;1.40;;;23.60;91.20;;;;;;5003576;28;20937;-66
2023/09/15 12:04:06;;;;;;;1.30;1.20;;;23.70;90.80;;;;;;5003192;28;20574;-66
2023/09/15 12:06:32;;;;;;;1.33;1.23;;;23.70;90.50;;;;;;5001875;28;20523;-66
2023/09/15 12:08:58;;;;;;;2.50;1.63;;;23.80;90.90;;;;;;5004972;28;20206;-65
2023/09/15 12:11:24;;;;;;;1.17;1.10;;;23.90;90.30;;;;;;5002556;28;20823;-66
2023/09/15 12:13:54;;;;;;;1.47;1.37;;;24.00;89.50;;;;;;5002430;28;20574;-66
2023/09/15 12:16:26;;;;;;;5.97;1.50;;;24.10;89.90;;;;;;4999426;28;20453;-66
2023/09/15 12:18:51;;;;;;;1.13;1.03;;;24.20;89.90;;;;;;4998044;28;20425;-66
2023/09/15 12:21:24;;;;;;;1.10;1.00;;;24.20;88.90;;;;;;4986415;28;20449;-67
2023/09/15 12:23:51;;;;;;;1.53;1.43;;;24.20;88.80;;;;;;4997930;28;20184;-67
2023/09/15 12:26:17;;;;;;;3.33;2.07;;;24.20;88.30;;;;;;5001816;28;20432;-66
2023/09/15 12:28:43;;;;;;;1.00;0.90;;;24.30;89.30;;;;;;5000778;28;20456;-66
2023/09/15 12:31:18;;;;;;;1.93;1.83;;;24.40;87.70;;;;;;5002244;28;20893;-67
2023/09/15 12:33:53;;;;;;;2.40;1.30;;;24.50;88.20;;;;;;5003399;28;20281;-67
2023/09/15 12:36:19;;;;;;;2.50;1.93;;;24.60;87.80;;;;;;5002285;28;20447;-66
2023/09/15 12:38:45;;;;;;;1.73;1.47;;;24.70;88.10;;;;;;5003926;28;20431;-66
2023/09/15 12:41:11;;;;;;;1.13;1.10;;;24.70;87.10;;;;;;5006789;28;20474;-66
2023/09/15 12:43:37;;;;;;;1.87;0.90;;;24.80;87.90;;;;;;5003156;28;20181;-66
2023/09/15 12:46:03;;;;;;;2.00;1.30;;;24.90;86.80;;;;;;5005713;28;20185;-66
2023/09/15 12:48:30;;;;;;;0.80;0.80;;;24.90;85.90;;;;;;5004179;28;20186;-67
2023/09/15 12:50:55;;;;;;;2.73;2.07;;;25.00;86.00;;;;;;5001463;28;20459;-67
2023/09/15 12:53:21;;;;;;;1.37;1.30;;;25.00;86.30;;;;;;5003623;28;20425;-66
2023/09/15 12:55:46;;;;;;;1.33;1.23;;;25.00;86.20;;;;;;5003791;28;20610;-66
2023/09/15 12:58:12;;;;;;;1.67;1.13;;;25.00;85.50;;;;;;5004122;28;20191;-66
2023/09/15 13:00:38;;;;;;;1.40;1.27;;;25.00;85.60;;;;;;4999083;28;20218;-65
2023/09/15 13:03:05;;;;;;;5.83;1.50;;;25.10;86.10;;;;;;4996982;28;20244;-66
2023/09/15 13:05:31;;;;;;;1.23;1.20;;;25.20;86.20;;;;;;4988679;28;20425;-65
2023/09/15 13:07:56;;;;;;;3.27;2.33;;;25.20;85.10;;;;;;4994144;28;20435;-66
2023/09/15 13:10:22;;;;;;;1.13;1.07;;;25.20;84.00;;;;;;4999396;28;20504;-66
2023/09/15 13:12:48;;;;;;;1.33;1.20;;;25.20;84.80;;;;;;4998772;28;20185;-65
2023/09/15 13:15:13;;;;;;;1.37;0.80;;;25.20;84.40;;;;;;4994911;28;20221;-66
2023/09/15 13:17:39;;;;;;;2.70;1.27;;;25.30;84.10;;;;;;4999973;28;20186;-66
2023/09/15 13:20:08;;;;;;;2.97;1.23;;;25.40;84.30;;;;;;4995796;28;20281;-66
2023/09/15 13:22:35;;;;;;;2.17;1.70;;;25.50;84.10;;;;;;5001911;28;20440;-65
2023/09/15 13:25:01;;;;;;;1.50;1.50;;;25.50;83.60;;;;;;4997264;28;20427;-66
2023/09/15 13:27:28;;;;;;;1.10;1.00;;;25.70;83.50;;;;;;4996253;28;20769;-66
2023/09/15 13:29:57;;;;;;;1.40;1.30;;;25.80;83.50;;;;;;5006046;28;20638;-66
2023/09/15 13:32:24;;;;;;;0.87;0.83;;;25.80;82.90;;;;;;4999534;28;20445;-66
2023/09/15 13:34:49;;;;;;;1.27;1.10;;;25.80;83.40;;;;;;5000470;28;20506;-66
2023/09/15 13:37:15;;;;;;;1.53;0.90;;;25.90;83.40;;;;;;4998251;28;20996;-66
2023/09/15 13:39:40;;;;;;;1.20;1.13;;;25.90;82.50;;;;;;5003936;28;20196;-65
2023/09/15 13:42:06;;;;;;;2.10;1.43;;;26.00;82.60;;;;;;4994145;28;20229;-65
2023/09/15 13:44:31;;;;;;;1.03;0.93;;;26.00;82.20;;;;;;4998003;28;20190;-64
2023/09/15 13:46:57;;;;;;;1.90;1.00;;;25.90;82.40;;;;;;5002341;28;20181;-65
2023/09/15 13:49:23;;;;;;;2.27;1.50;;;26.00;82.60;;;;;;5002371;28;20570;-65
2023/09/15 13:51:49;;;;;;;2.43;1.43;;;26.00;82.40;;;;;;4998999;28;20216;-65
2023/09/15 13:54:14;;;;;;;1.70;1.10;;;26.00;82.20;;;;;;5002010;28;20181;-66
2023/09/15 13:56:40;;;;;;;1.33;1.00;;;25.90;81.70;;;;;;5004014;28;20673;-66
2023/09/15 13:59:05;;;;;;;1.30;1.10;;;25.90;82.90;;;;;;4997668;28;20201;-66
2023/09/15 14:01:31;;;;;;;1.87;1.60;;;25.80;81.10;;;;;;4999763;28;20236;-66
2023/09/15 14:03:57;;;;;;;2.23;1.50;;;25.70;81.90;;;;;;4996049;28;20551;-65
2023/09/15 14:06:23;;;;;;;1.33;1.30;;;25.70;81.90;;;;;;5004970;28;20264;-65
2023/09/15 14:08:49;;;;;;;1.47;1.07;;;25.70;82.80;;;;;;5006642;28;20513;-65
2023/09/15 14:11:15;;;;;;;2.37;1.80;;;25.90;82.60;;;;;;5000057;28;20460;-65
2023/09/15 14:13:40;;;;;;;16.23;1.37;;;25.90;82.10;;;;;;4993866;28;20255;-67
2023/09/15 14:16:06;;;;;;;5.60;2.13;;;25.90;81.10;;;;;;4992965;28;20209;-66
2023/09/15 14:18:31;;;;;;;0.90;0.80;;;25.90;81.20;;;;;;4998928;28;20185;-66
2023/09/15 14:21:00;;;;;;;1.33;1.23;;;26.00;81.70;;;;;;5001880;28;20857;-66
2023/09/15 14:23:26;;;;;;;2.60;1.30;;;26.10;82.40;;;;;;5000112;28;20176;-66
2023/09/15 14:25:52;;;;;;;2.33;1.93;;;26.20;81.80;;;;;;4997206;28;20432;-66
2023/09/15 14:28:18;;;;;;;3.13;1.10;;;26.20;81.10;;;;;;4999687;28;20834;-67
2023/09/15 14:30:44;;;;;;;3.20;2.00;;;26.30;80.80;;;;;;4998405;28;20444;-66
2023/09/15 14:33:09;;;;;;;1.47;1.37;;;26.30;80.40;;;;;;4999445;28;20185;-66
2023/09/15 14:35:35;;;;;;;4.90;1.77;;;26.40;80.20;;;;;;5001741;28;20928;-66
2023/09/15 14:38:00;;;;;;;1.10;1.10;;;26.30;79.00;;;;;;5002035;28;20235;-66
2023/09/15 14:40:26;;;;;;;1.07;1.00;;;26.30;79.80;;;;;;5001938;28;20280;-66
2023/09/15 14:42:52;;;;;;;2.50;1.03;;;26.30;80.20;;;;;;5002695;28;20169;-66
2023/09/15 14:45:18;;;;;;;0.90;0.80;;;26.30;79.60;;;;;;5000923;28;20424;-66
2023/09/15 14:47:45;;;;;;;2.20;1.67;;;26.30;79.90;;;;;;5003660;28;20268;-66
2023/09/15 14:50:11;;;;;;;3.53;1.67;;;26.40;79.70;;;;;;5001380;28;20209;-66
2023/09/15 14:52:36;;;;;;;1.17;1.07;;;26.40;79.40;;;;;;5001337;28;20416;-65
2023/09/15 14:55:03;;;;;;;1.50;1.43;;;26.40;79.80;;;;;;4999821;28;20177;-66
2023/09/15 14:57:29;;;;;;;0.90;0.80;;;26.50;79.40;;;;;;5002460;28;20657;-66
2023/09/15 14:59:54;;;;;;;1.90;1.37;;;26.50;78.90;;;;;;5003097;28;20428;-66
2023/09/15 15:02:20;;;;;;;2.67;1.60;;;26.60;78.80;;;;;;5001050;28;20213;-66
2023/09/15 15:04:45;;;;;;;1.30;1.10;;;26.60;79.20;;;;;;5000329;28;20272;-66
2023/09/15 15:07:11;;;;;;;1.83;1.20;;;26.70;78.80;;;;;;5002965;28;20674;-66
2023/09/15 15:09:37;;;;;;;21.37;1.43;;;26.70;78.50;;;;;;5000287;28;20217;-66
2023/09/15 15:12:03;;;;;;;2.50;1.40;;;26.70;78.70;;;;;;4999942;28;20228;-66
2023/09/15 15:14:29;;;;;;;2.53;1.60;;;26.70;78.30;;;;;;4989732;28;20209;-66
2023/09/15 15:16:57;;;;;;;1.33;0.90;;;26.60;78.80;;;;;;5006692;28;20448;-66
2023/09/15 15:19:23;;;;;;;1.20;1.10;;;26.60;78.40;;;;;;5002182;28;20424;-66
2023/09/15 15:21:49;;;;;;;1.23;1.13;;;26.60;78.40;;;;;;4998307;28;20827;-66
2023/09/15 15:24:14;;;;;;;1.47;1.00;;;26.50;78.70;;;;;;5003127;28;20924;-66
2023/09/15 15:26:40;;;;;;;1.30;1.20;;;26.50;79.00;;;;;;4987634;28;20252;-66
2023/09/15 15:29:05;;;;;;;2.30;1.47;;;26.40;78.60;;;;;;4989851;28;20213;-66
2023/09/15 15:31:33;;;;;;;1.27;1.17;;;26.40;77.60;;;;;;5006472;28;20684;-66
2023/09/15 15:34:01;;;;;;;1.73;1.13;;;26.30;78.70;;;;;;4992512;28;20664;-66
2023/09/15 15:36:28;;;;;;;1.67;1.17;;;26.30;79.00;;;;;;4999017;28;20491;-66
2023/09/15 15:38:54;;;;;;;0.97;0.90;;;26.20;79.00;;;;;;5002127;28;20440;-65
2023/09/15 15:41:19;;;;;;;1.10;1.10;;;26.20;78.80;;;;;;5000022;28;20609;-66
2023/09/15 15:43:44;;;;;;;1.30;1.20;;;26.20;79.10;;;;;;4992793;28;20213;-66
2023/09/15 15:46:10;;;;;;;1.30;1.03;;;26.20;79.30;;;;;;5004955;28;20260;-66
2023/09/15 15:48:36;;;;;;;1.43;1.07;;;26.20;78.60;;;;;;5003417;28;20192;-66
2023/09/15 15:51:03;;;;;;;1.90;1.87;;;26.20;78.90;;;;;;5002489;28;20277;-65
2023/09/15 15:53:33;;;;;;;1.83;1.73;;;26.10;78.60;;;;;;5000285;28;20432;-65
2023/09/15 15:55:59;;;;;;;1.10;1.00;;;26.00;78.70;;;;;;5001429;28;20425;-66
2023/09/15 15:58:25;;;;;;;1.93;1.47;;;25.80;78.80;;;;;;5001556;28;20420;-65
2023/09/15 16:00:51;;;;;;;1.10;1.10;;;25.70;79.30;;;;;;5003025;28;20561;-65
2023/09/15 16:03:17;;;;;;;1.10;1.00;;;25.60;79.70;;;;;;5003408;28;20959;-65
2023/09/15 16:05:43;;;;;;;1.70;1.30;;;25.40;79.90;;;;;;5002322;28;20519;-65
2023/09/15 16:08:09;;;;;;;1.23;1.10;;;25.30;80.30;;;;;;5003758;28;20260;-65
2023/09/15 16:10:36;;;;;;;2.10;1.73;;;25.30;80.60;;;;;;4996682;28;20584;-65
2023/09/15 16:13:02;;;;;;;1.40;1.30;;;25.20;81.10;;;;;;5002377;28;20420;-66
2023/09/15 16:15:28;;;;;;;1.90;1.80;;;25.20;80.70;;;;;;5015998;23;20597;-87
2023/09/15 16:18:02;;;;;;;1.50;1.10;;;25.20;81.00;;;;;;4995261;28;20959;-87
2023/09/15 16:20:27;;;;;;;1.80;1.60;;;25.20;80.50;;;;;;4989448;28;20561;-90
2023/09/15 16:22:53;;;;;;;3.27;1.77;;;25.20;80.70;;;;;;4994536;23;20493;-75
2023/09/15 16:25:18;;;;;;;1.17;1.07;;;25.30;80.70;;;;;;4984350;28;20170;-74
2023/09/15 16:27:44;;;;;;;1.60;1.50;;;25.30;80.70;;;;;;4991164;28;20177;-72
2023/09/15 16:30:09;;;;;;;1.50;1.40;;;25.20;80.60;;;;;;4981554;28;20201;-72
2023/09/15 16:32:36;;;;;;;1.20;1.10;;;25.20;80.70;;;;;;5001394;28;20658;-72
2023/09/15 16:35:03;;;;;;;1.60;1.57;;;25.20;80.40;;;;;;4999303;28;20196;-74
2023/09/15 16:37:29;;;;;;;1.03;0.93;;;25.10;80.40;;;;;;4995333;28;20841;-74
2023/09/15 16:39:54;;;;;;;2.20;1.73;;;25.10;80.90;;;;;;5000221;28;20482;-76
2023/09/15 16:42:20;;;;;;;1.13;1.10;;;25.10;81.30;;;;;;4999095;28;20213;-76
2023/09/15 16:44:45;;;;;;;1.30;1.20;;;25.00;81.40;;;;;;4995108;28;20220;-75
2023/09/15 16:47:14;;;;;;;1.50;1.40;;;25.00;81.60;;;;;;5004094;28;20261;-75
2023/09/15 16:49:39;;;;;;;1.03;1.00;;;24.90;81.50;;;;;;5003980;28;20554;-75
2023/09/15 16:52:05;;;;;;;1.20;1.10;;;24.80;81.60;;;;;;5002314;28;20511;-77
2023/09/15 16:54:30;;;;;;;2.57;1.13;;;24.70;81.90;;;;;;5005595;28;20268;-75
2023/09/15 16:56:56;;;;;;;1.27;1.03;;;24.50;82.10;;;;;;5001661;28;20178;-74
2023/09/15 16:59:21;;;;;;;3.23;1.53;;;24.30;82.40;;;;;;5004545;28;20181;-75
2023/09/15 17:01:47;;;;;;;1.30;1.23;;;24.10;82.80;;;;;;5002898;28;20267;-75